createdAt,value
2022-11-16T02:37:59.919Z,67.50
2022-11-16T02:41:11.441Z,57.47
2022-11-16T02:44:30.475Z,72.60
2022-11-16T02:47:35.570Z,65.68
2022-11-16T02:50:39.614Z,73.37
2022-11-16T02:53:57.967Z,61.67
2022-11-16T02:57:04.006Z,65.27
2022-11-16T03:00:10.611Z,61.42
2022-11-16T03:03:22.449Z,63.72
2022-11-16T03:06:30.026Z,60.50
2022-11-16T03:09:36.924Z,56.47
2022-11-16T03:12:41.891Z,60.63
2022-11-16T03:15:45.560Z,62.65
2022-11-16T03:18:52.637Z,60.95
2022-11-16T03:22:21.287Z,64.28
2022-11-16T03:25:27.116Z,60.88
2022-11-16T03:28:39.097Z,66.40
2022-11-16T03:31:48.982Z,59.30
2022-11-16T03:34:59.885Z,57.42
2022-11-16T03:38:06.503Z,58.05
2022-11-16T03:41:11.126Z,63.92
2022-11-16T03:44:16.345Z,63.22
2022-11-16T03:47:21.176Z,63.92
2022-11-16T03:50:24.749Z,70.35
2022-11-16T03:53:28.462Z,66.15
2022-11-16T03:56:32.049Z,65.68
2022-11-16T03:59:37.246Z,63.72
2022-11-16T04:02:40.499Z,69.90
2022-11-16T04:06:04.175Z,64.95
2022-11-16T04:09:25.456Z,61.72
2022-11-16T04:12:47.050Z,66.45
2022-11-16T04:16:08.244Z,69.95
2022-11-16T04:19:32.313Z,79.62
2022-11-16T04:23:07.386Z,81.37
2022-11-16T04:26:11.739Z,69.75
2022-11-16T04:29:15.268Z,78.35
2022-11-16T04:32:37.402Z,81.75
2022-11-16T04:35:58.936Z,67.12
2022-11-16T04:39:02.883Z,82.05
2022-11-16T04:42:20.200Z,85.15
2022-11-16T04:45:44.153Z,73.43
2022-11-16T04:48:47.672Z,75.07
2022-11-16T04:51:51.410Z,90.60
2022-11-16T04:54:53.921Z,83.82
2022-11-16T04:57:57.243Z,111.20
2022-11-16T05:01:00.393Z,84.55
2022-11-16T05:04:03.421Z,103.65
2022-11-16T05:07:11.198Z,77.75
2022-11-16T05:10:14.556Z,124.55
2022-11-16T05:13:16.879Z,76.32
2022-11-16T05:16:19.481Z,77.47
2022-11-16T05:19:40.294Z,79.60
2022-11-16T05:22:43.222Z,81.18
2022-11-16T05:25:45.439Z,86.57
2022-11-16T05:28:47.910Z,117.37
2022-11-16T05:31:50.102Z,86.18
2022-11-16T05:34:53.606Z,93.90
2022-11-16T05:37:56.118Z,82.22
2022-11-16T05:40:58.629Z,83.80
2022-11-16T05:44:00.775Z,79.65
2022-11-16T05:47:03.543Z,77.10
2022-11-16T05:50:06.607Z,95.93
2022-11-16T05:53:10.594Z,84.87
2022-11-16T05:56:15.096Z,88.97
2022-11-16T05:59:20.196Z,113.30
2022-11-16T06:02:23.350Z,97.15
2022-11-16T06:05:26.668Z,94.30
2022-11-16T06:08:30.002Z,113.68
2022-11-16T06:11:35.962Z,98.50
2022-11-16T06:14:39.358Z,83.80
2022-11-16T06:17:41.898Z,98.35
2022-11-16T06:20:44.652Z,97.72
2022-11-16T06:23:48.246Z,90.25
2022-11-16T06:26:50.480Z,92.93
2022-11-16T06:29:53.011Z,88.95
2022-11-16T06:32:55.316Z,97.53
2022-11-16T06:35:57.954Z,96.53
2022-11-16T06:39:01.767Z,98.32
2022-11-16T06:42:05.672Z,95.65
2022-11-16T06:45:10.146Z,77.12
2022-11-16T06:48:13.327Z,87.47
2022-11-16T06:51:16.464Z,90.80
2022-11-16T06:54:20.275Z,78.62
2022-11-16T06:57:23.338Z,83.45
2022-11-16T07:00:27.994Z,102.32
2022-11-16T07:03:31.832Z,109.93
2022-11-16T07:06:36.713Z,87.85
2022-11-16T07:09:41.708Z,97.28
2022-11-16T07:12:44.424Z,112.78
2022-11-16T07:15:46.934Z,86.70
2022-11-16T07:18:49.541Z,97.43
2022-11-16T07:21:52.012Z,88.93
2022-11-16T07:24:57.800Z,90.97
2022-11-16T07:28:01.021Z,97.78
2022-11-16T07:31:07.544Z,94.47
2022-11-16T07:34:09.862Z,100.12
2022-11-16T07:37:13.206Z,95.18
2022-11-16T07:40:15.939Z,83.43
2022-11-16T07:43:18.874Z,82.20
2022-11-16T07:46:45.841Z,83.40
2022-11-16T07:49:49.996Z,100.62
2022-11-16T07:52:56.295Z,88.60
2022-11-16T07:56:00.016Z,106.45
2022-11-16T07:59:02.807Z,98.22
2022-11-16T08:02:06.844Z,83.62
2022-11-16T08:05:10.813Z,96.05
2022-11-16T08:08:13.490Z,84.70
2022-11-16T08:11:16.218Z,82.78
2022-11-16T08:14:19.282Z,93.07
2022-11-16T08:17:22.914Z,92.18
2022-11-16T08:20:25.158Z,85.57
2022-11-16T08:23:29.778Z,96.05
2022-11-16T08:26:32.364Z,85.12
2022-11-16T08:29:35.262Z,96.15
2022-11-16T08:32:38.858Z,92.62
2022-11-16T09:09:07.328Z,81.45
2022-11-16T09:12:11.027Z,86.10
2022-11-16T09:15:19.627Z,89.32
2022-11-16T09:18:23.290Z,97.40
2022-11-16T09:21:31.086Z,86.55
2022-11-16T09:24:37.878Z,81.40
2022-11-16T09:27:41.766Z,85.03
2022-11-16T09:30:52.072Z,81.43
2022-11-16T09:34:09.924Z,91.40
2022-11-16T09:37:56.213Z,86.47
2022-11-16T09:42:01.736Z,74.20
2022-11-16T09:45:30.801Z,77.53
2022-11-16T09:48:44.031Z,79.90
2022-11-16T09:51:58.609Z,81.90
2022-11-16T09:55:37.728Z,79.55
2022-11-16T09:59:18.773Z,74.72
2022-11-16T10:02:40.546Z,72.57
2022-11-16T10:05:50.208Z,76.78
2022-11-16T10:08:58.709Z,84.55
2022-11-16T10:12:22.079Z,71.45
2022-11-16T10:15:42.095Z,77.43
2022-11-16T10:19:43.926Z,76.70
2022-11-16T10:23:04.799Z,80.57
2022-11-16T10:26:22.385Z,80.03
2022-11-16T10:29:36.858Z,78.35
2022-11-16T10:33:04.554Z,73.22
2022-11-16T10:36:15.483Z,76.18
2022-11-16T10:39:20.576Z,78.85
2022-11-16T10:42:44.285Z,71.60
2022-11-16T10:46:12.762Z,71.68
2022-11-16T10:49:25.349Z,69.18
2022-11-16T10:52:28.749Z,67.85
2022-11-16T10:55:31.030Z,64.55
2022-11-16T10:58:59.668Z,64.43
2022-11-16T11:02:26.535Z,67.35
2022-11-16T11:05:29.807Z,63.45
2022-11-16T11:08:36.388Z,71.97
2022-11-16T11:11:57.511Z,65.65
2022-11-16T11:15:15.538Z,62.20
2022-11-16T11:18:19.623Z,64.20
2022-11-16T11:21:27.736Z,68.35
2022-11-16T11:24:47.769Z,65.55
2022-11-16T11:27:52.500Z,69.40
2022-11-16T11:31:05.084Z,65.90
2022-11-16T11:34:24.900Z,66.93
2022-11-16T11:37:33.138Z,68.25
2022-11-16T11:40:36.252Z,65.30
2022-11-16T11:43:38.951Z,70.25
2022-11-16T11:47:42.460Z,72.50
2022-11-16T11:50:30.326Z,77.72
2022-11-16T11:53:51.600Z,67.10
2022-11-16T11:56:54.615Z,71.87
2022-11-16T11:59:56.842Z,65.97
2022-11-16T12:03:47.569Z,71.18
2022-11-16T12:07:00.023Z,67.12
2022-11-16T12:10:36.320Z,62.15
2022-11-16T12:14:01.982Z,61.10
2022-11-16T12:17:15.295Z,66.32
2022-11-16T12:20:32.401Z,66.70
2022-11-16T12:24:13.025Z,59.53
2022-11-16T12:27:18.192Z,62.05
2022-11-16T12:30:23.718Z,61.83
2022-11-16T12:33:44.328Z,53.87
2022-11-16T12:37:08.725Z,54.70
2022-11-16T12:40:40.944Z,50.55
2022-11-16T12:44:12.126Z,53.65
2022-11-16T12:47:23.395Z,52.10
2022-11-16T12:50:44.774Z,54.65
2022-11-16T12:54:03.070Z,51.92
2022-11-16T12:57:27.242Z,63.10
2022-11-16T13:00:44.376Z,56.30
2022-11-16T13:03:55.158Z,51.58
2022-11-16T13:07:10.889Z,48.58
2022-11-16T13:10:32.720Z,48.75
2022-11-16T13:13:40.470Z,45.30
2022-11-16T13:16:44.613Z,42.22
2022-11-16T13:20:14.986Z,47.83
2022-11-16T13:23:55.914Z,47.45
2022-11-16T13:27:21.713Z,44.63
2022-11-16T13:30:46.853Z,47.35
2022-11-16T13:33:55.423Z,51.63
2022-11-16T13:36:57.695Z,44.42
2022-11-16T13:40:00.026Z,43.35
2022-11-16T13:43:10.985Z,45.20
2022-11-16T13:46:27.568Z,43.97
2022-11-16T13:49:40.899Z,44.63
2022-11-16T13:53:46.225Z,38.13
2022-11-16T13:56:16.344Z,35.97
2022-11-16T13:59:26.694Z,37.45
2022-11-16T14:02:36.276Z,39.97
2022-11-16T14:05:44.860Z,36.15
2022-11-16T14:08:49.544Z,34.67
2022-11-16T14:11:51.990Z,33.42
2022-11-16T14:15:20.279Z,37.88
2022-11-16T14:18:35.317Z,34.17
2022-11-16T14:22:25.552Z,27.67
2022-11-16T14:25:50.970Z,30.37
2022-11-16T14:29:36.621Z,33.25
2022-11-16T14:32:48.962Z,25.80
2022-11-16T14:35:53.848Z,33.80
2022-11-16T14:39:16.933Z,23.58
2022-11-16T14:42:38.245Z,23.65
2022-11-16T14:46:03.514Z,24.73
2022-11-16T14:49:13.850Z,24.00
2022-11-16T14:52:19.229Z,25.70
2022-11-16T14:55:25.402Z,28.83
2022-11-16T14:58:28.843Z,22.02
2022-11-16T15:01:39.912Z,21.52
2022-11-16T15:04:43.123Z,27.15
2022-11-16T15:07:49.821Z,22.58
2022-11-16T15:10:52.881Z,25.75
2022-11-16T15:13:55.787Z,25.20
2022-11-16T15:17:00.244Z,27.92
2022-11-16T15:20:14.715Z,25.92
2022-11-16T15:23:19.785Z,25.25
2022-11-16T15:26:23.696Z,25.58
2022-11-16T15:29:26.254Z,29.75
2022-11-16T15:32:28.564Z,29.33
2022-11-16T15:35:32.779Z,30.95
2022-11-16T15:38:37.663Z,28.90
2022-11-16T15:41:40.876Z,32.42
2022-11-16T15:44:44.083Z,31.08
2022-11-16T15:47:47.489Z,30.67
2022-11-16T15:51:20.054Z,31.48
2022-11-16T15:54:52.770Z,27.80
2022-11-16T15:58:06.793Z,26.12
2022-11-16T16:01:11.992Z,34.63
2022-11-16T16:04:18.695Z,29.33
2022-11-16T16:07:41.318Z,28.77
2022-11-16T16:10:43.823Z,25.42
2022-11-16T16:13:58.633Z,29.33
2022-11-16T16:17:01.160Z,28.20
2022-11-16T16:20:06.511Z,28.73
2022-11-16T16:23:15.837Z,29.48
2022-11-16T16:26:18.498Z,29.05
2022-11-16T16:29:20.979Z,25.45
2022-11-16T16:32:34.569Z,26.45
2022-11-16T16:35:37.079Z,25.48
2022-11-16T16:38:39.994Z,29.40
2022-11-16T16:41:42.545Z,28.62
2022-11-16T16:44:46.098Z,25.00
2022-11-16T16:47:49.103Z,29.37
2022-11-16T16:50:51.422Z,28.45
2022-11-16T16:53:53.880Z,24.08
2022-11-16T16:56:57.409Z,27.58
2022-11-16T17:00:00.048Z,25.65
2022-11-16T17:03:02.314Z,22.35
2022-11-16T17:06:04.980Z,22.92
2022-11-16T17:09:07.140Z,22.42
2022-11-16T17:12:10.948Z,23.23
2022-11-16T17:15:19.060Z,23.38
2022-11-16T17:21:24.399Z,20.83
2022-11-16T17:24:26.958Z,24.77
2022-11-16T17:27:29.075Z,23.15
2022-11-16T17:30:31.562Z,22.62
2022-11-16T17:33:35.164Z,20.67
2022-11-16T17:36:37.864Z,22.98
2022-11-16T17:39:40.261Z,24.92
2022-11-16T17:42:43.175Z,20.85
2022-11-16T17:45:45.303Z,20.20
2022-11-16T17:48:48.793Z,20.45
2022-11-16T17:51:50.973Z,20.67
2022-11-16T17:54:53.487Z,18.87
2022-11-16T17:57:56.614Z,20.58
2022-11-16T18:00:59.592Z,20.27
2022-11-16T18:04:02.560Z,20.45
2022-11-16T18:07:04.748Z,19.40
2022-11-16T18:10:08.137Z,18.62
2022-11-16T18:13:10.282Z,17.15
2022-11-16T18:16:15.762Z,17.45
2022-11-16T18:19:19.081Z,18.95
2022-11-16T18:22:21.518Z,17.67
2022-11-16T18:25:24.502Z,18.30
2022-11-16T18:28:26.999Z,16.33
2022-11-16T18:31:29.857Z,18.77
2022-11-16T18:34:32.385Z,18.17
2022-11-16T18:37:34.532Z,17.33
2022-11-16T18:40:36.982Z,18.35
2022-11-16T18:43:41.696Z,22.42
2022-11-16T18:46:44.266Z,20.77
2022-11-16T18:49:46.390Z,15.85
2022-11-16T18:52:48.945Z,19.45
2022-11-16T18:55:57.839Z,19.67
2022-11-16T18:59:00.806Z,16.52
2022-11-16T19:02:02.917Z,17.80
2022-11-16T19:05:06.080Z,19.15
2022-11-16T19:08:08.260Z,16.92
2022-11-16T19:11:16.826Z,19.77
2022-11-16T19:14:19.032Z,18.92
2022-11-16T19:17:24.493Z,19.80
2022-11-16T19:20:26.779Z,17.52
2022-11-16T19:23:29.211Z,13.75
2022-11-16T19:26:31.444Z,14.65
2022-11-16T19:29:34.337Z,12.65
2022-11-16T19:32:36.444Z,16.52
2022-11-16T19:35:38.849Z,10.93
2022-11-16T19:38:41.753Z,13.55
2022-11-16T19:41:44.174Z,11.38
2022-11-16T19:44:46.308Z,13.65
2022-11-16T19:47:49.439Z,11.30
2022-11-16T19:50:51.659Z,12.80
2022-11-16T19:53:54.746Z,9.23
2022-11-16T19:56:56.947Z,10.32
2022-11-16T19:59:59.516Z,13.60
2022-11-16T20:03:01.661Z,10.55
2022-11-16T20:06:15.457Z,8.57
2022-11-16T20:09:17.641Z,9.50
2022-11-16T20:12:20.072Z,10.23
2022-11-16T20:15:25.280Z,13.23
2022-11-16T20:18:30.114Z,9.60
2022-11-16T20:21:35.193Z,11.88
2022-11-16T20:24:37.643Z,9.65
2022-11-16T20:27:39.748Z,11.20
2022-11-16T20:30:46.740Z,11.40
2022-11-16T20:34:03.860Z,11.93
2022-11-16T20:37:07.428Z,14.68
2022-11-16T20:40:10.243Z,11.95
2022-11-16T20:43:14.375Z,13.60
2022-11-16T20:46:17.638Z,12.13
2022-11-16T20:49:20.530Z,14.87
2022-11-16T20:52:22.691Z,14.63
2022-11-16T20:55:25.207Z,13.15
2022-11-16T20:58:27.340Z,14.38
2022-11-16T21:01:31.947Z,14.05
2022-11-16T21:04:34.341Z,11.65
2022-11-16T21:07:38.030Z,13.73
2022-11-16T21:10:40.367Z,14.48
2022-11-16T21:14:03.373Z,20.48
2022-11-16T21:17:05.529Z,12.27
2022-11-16T21:23:32.653Z,13.98
2022-11-16T21:26:35.490Z,17.58
2022-11-16T21:29:37.633Z,16.23
2022-11-16T21:32:40.111Z,17.20
2022-11-16T21:35:42.266Z,15.93
2022-11-16T21:38:45.540Z,15.48
2022-11-16T21:41:47.687Z,17.35
2022-11-16T21:44:50.133Z,18.65
2022-11-16T21:47:52.251Z,14.60
2022-11-16T21:51:02.425Z,12.88
2022-11-16T21:54:04.734Z,16.20
2022-11-16T21:57:07.204Z,15.73
2022-11-16T22:00:10.115Z,15.63
2022-11-16T22:03:13.562Z,17.35
2022-11-16T22:06:34.878Z,17.40
2022-11-16T22:09:37.371Z,17.45
2022-11-16T22:12:39.814Z,16.50
2022-11-16T22:15:41.945Z,18.45
2022-11-16T22:18:44.400Z,20.92
2022-11-16T22:21:46.535Z,17.08
2022-11-16T22:24:49.150Z,22.35
2022-11-16T22:28:19.029Z,19.52
2022-11-16T22:31:14.775Z,22.90
2022-11-16T22:34:16.971Z,21.42
2022-11-16T22:37:19.449Z,15.65
2022-11-16T22:40:21.662Z,16.95
2022-11-16T22:43:26.876Z,17.77
2022-11-16T22:46:29.077Z,15.70
2022-11-16T22:49:31.556Z,20.40
2022-11-16T22:52:33.750Z,30.25
2022-11-16T22:55:38.009Z,19.37
2022-11-16T22:58:40.210Z,21.37
2022-11-16T23:01:42.721Z,22.80
2022-11-16T23:04:44.870Z,21.62
2022-11-16T23:07:47.300Z,28.12
2022-11-16T23:11:08.088Z,25.58
2022-11-16T23:14:31.677Z,26.87
2022-11-16T23:17:33.859Z,28.35
2022-11-16T23:20:54.943Z,28.15
2022-11-16T23:24:26.005Z,40.38
2022-11-16T23:27:34.221Z,27.77
2022-11-16T23:30:36.730Z,26.60
2022-11-16T23:33:45.275Z,31.80
2022-11-16T23:36:47.439Z,27.37
2022-11-16T23:39:49.957Z,30.15
2022-11-16T23:43:12.502Z,26.65
2022-11-16T23:46:14.933Z,26.10
2022-11-16T23:49:17.114Z,31.77
2022-11-16T23:52:19.617Z,26.27
2022-11-16T23:55:23.096Z,29.15
2022-11-16T23:58:25.564Z,31.98
